Time;durP1;ratioP1;P1;durP2;ratioP2;P2;SDS_P1;SDS_P2;PMS_P1;PMS_P2;Temp;Humidity;BMP_temperature;BMP_pressure;BME280_temperature;BME280_humidity;BME280_pressure;Samples;Min_cycle;Max_cycle;Signal;HPM_P1;HPM_P2
2022/05/08 00:00:10;;;;;;;6.65;5.43;;;12.00;99.90;;;;;;5029582;28;20190;-82
2022/05/08 00:02:36;;;;;;;7.53;5.85;;;11.90;99.90;;;;;;5045200;28;20207;-81
2022/05/08 00:05:02;;;;;;;6.53;4.97;;;11.80;99.90;;;;;;5044617;28;20190;-81
2022/05/08 00:07:28;;;;;;;6.53;5.30;;;11.80;99.90;;;;;;5044287;28;20190;-81
2022/05/08 00:09:53;;;;;;;7.00;5.20;;;11.90;99.90;;;;;;5044214;28;20211;-81
2022/05/08 00:12:19;;;;;;;8.13;5.40;;;11.80;99.90;;;;;;5029770;28;20256;-82
2022/05/08 00:14:45;;;;;;;6.82;5.40;;;11.90;99.90;;;;;;5044245;28;20187;-81
2022/05/08 00:17:14;;;;;;;5.85;4.78;;;12.00;99.90;;;;;;5044656;28;20183;-80
2022/05/08 00:19:44;;;;;;;10.87;5.30;;;12.00;99.90;;;;;;5044516;28;20186;-81
2022/05/08 00:22:11;;;;;;;7.65;4.95;;;12.10;99.90;;;;;;5045012;28;20217;-80
2022/05/08 00:24:37;;;;;;;6.40;5.10;;;12.10;99.90;;;;;;5043992;28;20187;-82
2022/05/08 00:27:03;;;;;;;6.97;4.82;;;12.10;99.90;;;;;;5044144;28;20204;-81
2022/05/08 00:29:29;;;;;;;8.52;4.93;;;12.10;99.90;;;;;;5043383;28;20195;-81
2022/05/08 00:31:55;;;;;;;6.47;5.32;;;12.10;99.90;;;;;;5029195;28;20203;-81
2022/05/08 00:34:20;;;;;;;7.03;5.20;;;12.10;99.90;;;;;;5044255;28;20187;-81
2022/05/08 00:36:46;;;;;;;7.45;5.30;;;12.10;99.90;;;;;;5044757;28;20190;-81
2022/05/08 00:39:12;;;;;;;8.65;5.45;;;12.20;99.90;;;;;;5027143;28;20779;-81
2022/05/08 00:41:38;;;;;;;6.07;5.47;;;12.10;99.90;;;;;;5044048;28;20289;-81
2022/05/08 00:44:04;;;;;;;6.93;5.30;;;12.10;99.90;;;;;;5029547;28;20187;-81
2022/05/08 00:46:30;;;;;;;6.70;5.05;;;12.00;99.90;;;;;;5029293;28;20190;-81
2022/05/08 00:48:56;;;;;;;7.15;5.57;;;12.00;99.90;;;;;;5043504;28;20262;-81
2022/05/08 00:51:23;;;;;;;7.05;5.93;;;12.00;99.90;;;;;;5028392;28;20238;-81
2022/05/08 00:53:54;;;;;;;8.18;5.25;;;11.90;99.90;;;;;;5043701;28;20594;-80
2022/05/08 00:56:21;;;;;;;7.88;5.07;;;12.00;99.90;;;;;;5044114;28;20187;-81
2022/05/08 00:58:50;;;;;;;7.90;5.55;;;12.00;99.90;;;;;;5029222;28;20190;-83
2022/05/08 01:01:17;;;;;;;6.97;5.10;;;11.90;99.90;;;;;;5028980;28;20253;-81
2022/05/08 01:03:43;;;;;;;7.75;5.43;;;11.90;99.90;;;;;;5028614;28;20206;-80
2022/05/08 01:06:14;;;;;;;7.90;5.82;;;11.90;99.90;;;;;;5043018;28;20202;-81
2022/05/08 01:08:45;;;;;;;9.10;5.70;;;11.90;99.90;;;;;;5042730;28;20225;-81
2022/05/08 01:11:11;;;;;;;8.00;5.43;;;11.80;99.90;;;;;;5027813;28;20187;-81
2022/05/08 01:13:38;;;;;;;8.48;5.85;;;11.70;99.90;;;;;;5043170;28;20199;-81
2022/05/08 01:16:17;;;;;;;10.98;5.80;;;11.60;99.90;;;;;;5042773;28;20240;-81
2022/05/08 01:19:08;;;;;;;10.68;5.90;;;11.60;99.90;;;;;;5042571;28;20232;-83
2022/05/08 01:21:38;;;;;;;7.65;5.82;;;11.70;99.90;;;;;;5027271;28;20551;-82
2022/05/08 01:24:04;;;;;;;8.73;5.63;;;11.70;99.90;;;;;;5042992;28;20190;-81
2022/05/08 01:26:30;;;;;;;7.95;5.40;;;11.60;99.90;;;;;;5043872;28;20217;-81
2022/05/08 01:28:55;;;;;;;7.80;5.70;;;11.60;99.90;;;;;;5027353;28;20911;-81
2022/05/08 01:31:21;;;;;;;7.63;5.32;;;11.70;99.90;;;;;;5043782;28;20538;-81
2022/05/08 01:33:46;;;;;;;8.85;5.25;;;11.70;99.90;;;;;;5043159;28;20708;-80
2022/05/08 01:36:12;;;;;;;7.97;5.97;;;11.70;99.90;;;;;;5043295;28;20174;-81
2022/05/08 01:38:38;;;;;;;9.33;5.80;;;11.60;99.90;;;;;;5042831;28;20205;-81
2022/05/08 01:41:08;;;;;;;8.17;5.53;;;11.70;99.90;;;;;;5045130;28;20194;-80
2022/05/08 01:43:37;;;;;;;8.82;5.60;;;11.60;99.90;;;;;;5047229;28;20210;-81
2022/05/08 01:46:03;;;;;;;7.70;5.55;;;11.70;99.90;;;;;;5047139;28;20716;-82
2022/05/08 01:48:30;;;;;;;7.23;5.50;;;11.70;99.90;;;;;;5031425;28;20202;-81
2022/05/08 01:50:58;;;;;;;12.80;6.10;;;11.70;99.90;;;;;;5047006;28;20198;-81
2022/05/08 01:53:26;;;;;;;8.03;5.03;;;11.60;99.90;;;;;;5046988;28;20210;-81
2022/05/08 01:55:54;;;;;;;9.57;5.47;;;11.60;99.90;;;;;;5045970;28;20186;-80
2022/05/08 01:58:20;;;;;;;11.18;6.13;;;11.60;99.90;;;;;;5031091;28;20183;-81
2022/05/08 02:00:47;;;;;;;9.47;5.80;;;11.60;99.90;;;;;;5031243;28;20202;-81
2022/05/08 02:03:13;;;;;;;9.17;5.20;;;11.60;99.90;;;;;;5031092;28;20210;-80
2022/05/08 02:05:41;;;;;;;6.30;5.00;;;11.60;99.90;;;;;;5030177;28;21081;-81
2022/05/08 02:08:07;;;;;;;7.82;4.85;;;11.50;99.90;;;;;;5045832;28;20215;-80
2022/05/08 02:10:33;;;;;;;8.20;4.77;;;11.50;99.90;;;;;;5046749;28;20690;-81
2022/05/08 02:12:58;;;;;;;6.20;4.77;;;11.50;99.90;;;;;;5046881;28;20216;-81
2022/05/08 02:15:29;;;;;;;8.32;4.75;;;11.60;99.90;;;;;;5046766;28;20179;-80
2022/05/08 02:17:59;;;;;;;6.67;4.73;;;11.60;99.90;;;;;;5048748;28;20341;-81
2022/05/08 02:20:24;;;;;;;7.70;5.10;;;11.60;99.90;;;;;;5032908;28;20537;-81
2022/05/08 02:22:51;;;;;;;9.37;5.27;;;11.50;99.90;;;;;;5031278;28;20217;-82
2022/05/08 02:25:18;;;;;;;9.88;4.85;;;11.50;99.90;;;;;;5046778;28;20191;-81
2022/05/08 02:27:49;;;;;;;8.53;4.77;;;11.50;99.90;;;;;;5047615;28;20978;-81
2022/05/08 02:30:16;;;;;;;8.57;4.95;;;11.40;99.90;;;;;;5031045;28;20673;-81
2022/05/08 02:32:41;;;;;;;6.93;4.38;;;11.40;99.90;;;;;;5046083;28;20256;-82
2022/05/08 02:35:09;;;;;;;9.93;4.57;;;11.40;99.90;;;;;;5047313;28;20194;-81
2022/05/08 02:37:35;;;;;;;5.83;4.03;;;11.30;99.90;;;;;;5030970;28;20191;-81
2022/05/08 02:40:01;;;;;;;8.23;4.27;;;11.20;99.90;;;;;;5030143;28;20194;-81
2022/05/08 02:42:27;;;;;;;6.28;4.13;;;10.90;99.90;;;;;;5046115;28;20580;-79
2022/05/08 02:44:53;;;;;;;8.47;4.17;;;10.80;99.90;;;;;;5029813;28;20190;-81
2022/05/08 02:47:18;;;;;;;9.00;4.17;;;10.60;99.90;;;;;;5045872;28;20190;-80
2022/05/08 02:49:44;;;;;;;10.17;4.20;;;10.60;99.90;;;;;;5045153;28;20248;-80
2022/05/08 02:52:09;;;;;;;8.40;4.40;;;10.40;99.90;;;;;;5044603;28;20217;-81
2022/05/08 02:54:35;;;;;;;8.60;3.83;;;10.30;99.90;;;;;;5029858;28;20575;-80
2022/05/08 02:59:44;;;;;;;5.40;3.47;;;10.30;99.90;;;;;;5028023;28;20659;-81
2022/05/08 03:02:10;;;;;;;7.57;4.10;;;10.20;99.90;;;;;;5028951;28;20290;-81
2022/05/08 03:04:36;;;;;;;7.30;3.43;;;10.20;99.90;;;;;;5045714;28;20191;-82
2022/05/08 03:07:02;;;;;;;5.33;3.77;;;10.10;99.90;;;;;;5045718;28;20222;-82
2022/05/08 03:09:28;;;;;;;9.47;3.90;;;10.10;99.90;;;;;;5046219;28;20213;-82
2022/05/08 03:11:54;;;;;;;4.73;3.60;;;9.90;99.90;;;;;;5046824;28;20207;-81
2022/05/08 03:14:20;;;;;;;8.90;4.43;;;9.90;99.90;;;;;;5031458;28;20181;-82
2022/05/08 03:16:47;;;;;;;5.47;3.43;;;9.90;99.90;;;;;;5031692;28;20178;-82
2022/05/08 03:19:13;;;;;;;6.27;3.67;;;9.80;99.90;;;;;;5046465;28;20194;-80
2022/05/08 03:21:40;;;;;;;6.87;3.27;;;9.80;99.90;;;;;;5031071;28;20249;-80
2022/05/08 03:24:07;;;;;;;9.10;3.73;;;9.70;99.90;;;;;;5046292;28;20278;-81
2022/05/08 03:26:33;;;;;;;10.53;3.47;;;9.70;99.90;;;;;;5046445;28;20218;-81
2022/05/08 03:28:59;;;;;;;4.87;3.30;;;9.60;99.90;;;;;;5028141;28;20246;-81
2022/05/08 03:31:24;;;;;;;6.03;3.40;;;9.60;99.90;;;;;;5044174;28;21089;-82
2022/05/08 03:33:50;;;;;;;6.00;3.43;;;9.60;99.90;;;;;;5028433;28;20211;-81
2022/05/08 03:36:15;;;;;;;7.27;3.40;;;9.50;99.90;;;;;;5029116;28;20191;-81
2022/05/08 03:38:45;;;;;;;7.33;3.40;;;9.50;99.90;;;;;;5044802;28;20186;-81
2022/05/08 03:41:15;;;;;;;6.30;3.20;;;9.50;99.90;;;;;;5045320;28;20221;-81
2022/05/08 03:43:42;;;;;;;5.87;2.83;;;9.50;99.90;;;;;;5045031;28;20214;-82
2022/05/08 03:46:08;;;;;;;5.57;2.97;;;9.40;99.90;;;;;;5044131;28;20595;-81
2022/05/08 03:48:35;;;;;;;6.43;2.97;;;9.40;99.90;;;;;;5045086;28;20257;-81
2022/05/08 03:51:01;;;;;;;7.93;2.93;;;9.40;99.90;;;;;;5028910;28;20241;-81
2022/05/08 03:53:27;;;;;;;6.23;3.50;;;9.40;99.90;;;;;;5044218;28;20250;-81
2022/05/08 03:55:52;;;;;;;6.93;3.30;;;9.40;99.90;;;;;;5044536;28;20186;-82
2022/05/08 03:58:18;;;;;;;8.10;2.90;;;9.50;99.90;;;;;;5044094;28;20206;-81
2022/05/08 04:00:43;;;;;;;8.03;2.90;;;9.60;99.90;;;;;;5029582;28;20179;-81
2022/05/08 04:03:09;;;;;;;7.50;3.30;;;9.60;99.90;;;;;;5044197;28;20711;-82
2022/05/08 04:05:35;;;;;;;5.03;2.97;;;9.70;99.90;;;;;;5027857;28;20209;-81
2022/05/08 04:08:00;;;;;;;8.03;3.10;;;9.80;99.90;;;;;;5043567;28;20555;-82
2022/05/08 04:10:26;;;;;;;8.80;3.10;;;9.90;99.90;;;;;;5043770;28;20203;-81
2022/05/08 04:12:51;;;;;;;11.23;3.43;;;9.90;99.90;;;;;;5043871;28;21204;-80
2022/05/08 04:18:01;;;;;;;5.30;2.60;;;10.00;99.90;;;;;;5028548;28;20261;-81
2022/05/08 04:20:27;;;;;;;9.33;3.67;;;10.00;99.90;;;;;;5043661;28;20198;-81
2022/05/08 04:25:36;;;;;;;8.90;2.93;;;10.20;99.90;;;;;;5028785;28;20205;-81
2022/05/08 04:28:02;;;;;;;9.37;2.90;;;10.30;99.90;;;;;;5043545;28;20195;-81
2022/05/08 04:30:28;;;;;;;10.47;3.40;;;10.30;99.90;;;;;;5043756;28;21068;-81
2022/05/08 04:32:53;;;;;;;9.67;2.90;;;10.40;99.90;;;;;;5043879;28;20281;-81
2022/05/08 04:35:19;;;;;;;10.53;2.93;;;10.40;99.90;;;;;;5042685;28;20194;-81
2022/05/08 04:37:44;;;;;;;6.43;2.73;;;10.50;99.90;;;;;;5042983;28;20179;-82
2022/05/08 04:40:11;;;;;;;9.37;3.60;;;10.50;99.90;;;;;;5042666;28;21010;-81
2022/05/08 04:42:37;;;;;;;9.33;3.20;;;10.50;99.90;;;;;;5028177;28;20205;-80
2022/05/08 04:45:03;;;;;;;7.40;3.10;;;10.50;99.90;;;;;;5042691;28;20187;-81
2022/05/08 04:47:28;;;;;;;6.33;3.17;;;10.50;99.90;;;;;;5042623;28;20198;-81
2022/05/08 04:49:54;;;;;;;7.33;3.00;;;10.50;99.90;;;;;;5043567;28;20199;-81
2022/05/08 04:52:20;;;;;;;6.50;2.80;;;10.60;99.90;;;;;;5029051;28;20214;-81
2022/05/08 04:54:45;;;;;;;6.77;3.00;;;10.60;99.90;;;;;;5028761;28;20198;-82
2022/05/08 04:57:11;;;;;;;11.70;3.43;;;10.80;99.90;;;;;;5029948;28;20244;-82
2022/05/08 04:59:37;;;;;;;8.50;2.53;;;11.10;99.90;;;;;;5046995;28;20657;-81
2022/05/08 05:02:03;;;;;;;6.90;2.50;;;11.50;99.90;;;;;;5045109;28;20576;-82
2022/05/08 05:04:29;;;;;;;6.18;2.53;;;12.10;99.90;;;;;;5045427;28;20186;-82
2022/05/08 05:06:55;;;;;;;8.23;2.80;;;12.90;99.90;;;;;;5044478;28;20199;-82
2022/05/08 05:09:20;;;;;;;10.50;3.17;;;13.40;99.90;;;;;;5045882;28;20656;-82
2022/05/08 05:11:46;;;;;;;8.48;3.17;;;13.70;99.90;;;;;;5044624;28;20185;-82
2022/05/08 05:14:12;;;;;;;4.20;2.20;;;14.30;99.90;;;;;;5030079;28;20183;-81
2022/05/08 05:16:38;;;;;;;8.35;2.88;;;14.50;99.90;;;;;;5044749;28;20194;-82
2022/05/08 05:19:07;;;;;;;6.63;2.33;;;14.80;99.90;;;;;;5044500;28;20198;-82
2022/05/08 05:21:32;;;;;;;11.07;2.97;;;15.30;99.90;;;;;;5046073;28;20183;-83
2022/05/08 05:23:58;;;;;;;6.93;2.90;;;15.30;99.90;;;;;;5047076;28;20198;-82
2022/05/08 05:26:24;;;;;;;8.13;2.63;;;15.60;99.90;;;;;;5042861;28;20602;-82
2022/05/08 05:28:51;;;;;;;9.82;3.05;;;15.60;99.90;;;;;;5027273;28;20206;-80
2022/05/08 05:31:16;;;;;;;8.13;2.53;;;15.80;99.90;;;;;;5042489;28;20569;-81
2022/05/08 05:33:43;;;;;;;7.55;2.53;;;16.30;99.90;;;;;;5043374;28;20195;-82
2022/05/08 05:36:08;;;;;;;10.75;2.83;;;16.20;99.90;;;;;;5043217;28;20538;-80
2022/05/08 05:38:34;;;;;;;8.50;2.88;;;16.20;99.90;;;;;;5027993;28;20190;-81
2022/05/08 05:40:59;;;;;;;5.82;2.55;;;16.10;99.90;;;;;;5043413;28;20213;-81
2022/05/08 05:43:25;;;;;;;10.32;3.13;;;15.90;99.90;;;;;;5041440;28;20210;-81
2022/05/08 05:47:49;;;;;;;8.75;2.40;;;16.00;99.90;;;;;;5024511;28;20276;-81
2022/05/08 05:48:37;;;;;;;6.97;2.50;;;16.40;99.90;;;;;;5022006;28;20672;-83
2022/05/08 05:51:03;;;;;;;7.88;2.53;;;16.50;99.90;;;;;;5039558;28;20273;-81
2022/05/08 05:53:29;;;;;;;8.73;2.47;;;16.20;99.90;;;;;;5039809;28;20210;-81
2022/05/08 05:55:57;;;;;;;7.00;2.75;;;16.10;99.90;;;;;;5041604;28;20190;-82
2022/05/08 05:58:23;;;;;;;6.30;2.15;;;16.40;99.90;;;;;;5039306;28;20198;-82
2022/05/08 06:00:49;;;;;;;8.18;2.50;;;16.50;99.90;;;;;;5030080;28;20211;-85
2022/05/08 06:03:14;;;;;;;6.97;1.90;;;17.00;99.90;;;;;;5051785;28;20207;-85
2022/05/08 06:05:41;;;;;;;6.07;2.00;;;17.10;99.90;;;;;;5046423;28;20191;-84
2022/05/08 06:08:07;;;;;;;8.13;2.42;;;17.50;99.90;;;;;;5041033;28;20278;-86
2022/05/08 06:10:32;;;;;;;8.35;2.33;;;16.90;99.90;;;;;;5026207;28;20277;-81
2022/05/08 06:12:58;;;;;;;7.05;2.25;;;16.80;99.90;;;;;;5029857;28;20214;-83
2022/05/08 06:15:24;;;;;;;6.15;2.58;;;16.50;99.90;;;;;;5044835;28;20190;-82
2022/05/08 06:17:49;;;;;;;5.63;2.65;;;16.80;99.90;;;;;;5040183;28;20445;-82
2022/05/08 06:20:15;;;;;;;8.75;2.35;;;17.30;99.90;;;;;;5024121;28;20187;-81
2022/05/08 06:22:40;;;;;;;7.10;2.35;;;17.00;99.90;;;;;;5023922;28;20207;-81
2022/05/08 06:25:06;;;;;;;9.43;2.80;;;16.90;99.90;;;;;;5039832;28;20190;-84
2022/05/08 06:28:05;;;;;;;8.48;2.70;;;16.80;99.90;;;;;;5046055;28;20191;-85
2022/05/08 06:30:30;;;;;;;7.75;2.92;;;16.80;99.90;;;;;;4995617;28;20716;-82
2022/05/08 06:32:56;;;;;;;7.53;2.47;;;16.50;99.90;;;;;;5043601;28;20209;-84
2022/05/08 06:35:21;;;;;;;7.20;2.65;;;16.30;99.90;;;;;;5043990;28;20673;-81
2022/05/08 06:37:47;;;;;;;8.38;2.25;;;15.90;99.90;;;;;;5043055;28;20740;-81
2022/05/08 06:40:12;;;;;;;8.23;2.33;;;15.20;99.90;;;;;;5028166;28;20179;-82
2022/05/08 06:42:38;;;;;;;9.43;2.95;;;15.00;99.90;;;;;;5028070;28;20271;-86
2022/05/08 06:45:04;;;;;;;7.40;2.15;;;14.70;99.90;;;;;;5043422;28;20186;-84
2022/05/08 06:47:30;;;;;;;7.90;2.45;;;14.10;99.90;;;;;;5029764;28;20205;-85
2022/05/08 06:49:55;;;;;;;8.23;2.45;;;13.90;99.90;;;;;;5043597;28;20696;-80
2022/05/08 06:52:21;;;;;;;9.60;2.38;;;13.50;99.90;;;;;;5028530;28;21072;-81
2022/05/08 06:54:47;;;;;;;9.18;2.63;;;13.60;99.90;;;;;;5043488;28;20205;-84
2022/05/08 06:57:12;;;;;;;5.07;2.08;;;13.70;99.90;;;;;;5042870;28;20196;-81
2022/05/08 07:02:42;;;;;;;8.18;2.42;;;14.00;99.90;;;;;;5026639;28;20226;-84
2022/05/08 07:05:08;;;;;;;7.97;2.20;;;13.90;99.90;;;;;;5042970;28;20222;-82
2022/05/08 07:07:33;;;;;;;5.00;2.10;;;14.10;99.90;;;;;;5027295;28;20661;-80
2022/05/08 07:09:59;;;;;;;12.50;3.33;;;14.20;99.90;;;;;;5042008;28;20597;-82
2022/05/08 07:12:25;;;;;;;5.70;2.00;;;14.30;99.90;;;;;;5043771;28;20211;-83
2022/05/08 07:14:54;;;;;;;12.82;2.50;;;14.40;99.90;;;;;;5041932;28;20795;-83
2022/05/08 07:17:21;;;;;;;6.85;2.20;;;14.30;99.90;;;;;;5043202;28;20179;-84
2022/05/08 07:19:48;;;;;;;6.53;2.35;;;14.00;99.90;;;;;;5043013;28;20190;-80
2022/05/08 07:22:15;;;;;;;7.60;2.67;;;13.90;99.90;;;;;;5042723;28;20234;-85
2022/05/08 07:24:41;;;;;;;7.35;2.00;;;14.00;99.90;;;;;;5042642;28;20183;-86
2022/05/08 07:27:10;;;;;;;7.95;2.10;;;14.00;99.90;;;;;;5044147;28;20234;-80
2022/05/08 07:29:45;;;;;;;7.30;2.40;;;14.00;99.90;;;;;;5027153;28;20210;-81
2022/05/08 07:32:12;;;;;;;6.68;2.15;;;13.70;99.90;;;;;;5043538;28;20213;-84
2022/05/08 07:37:22;;;;;;;7.03;2.08;;;13.80;99.90;;;;;;5027194;28;20193;-85
2022/05/08 07:39:48;;;;;;;5.70;1.70;;;13.90;99.90;;;;;;5042838;28;20191;-80
2022/05/08 07:42:13;;;;;;;8.35;2.17;;;14.10;99.90;;;;;;5043605;28;20225;-83
2022/05/08 07:44:39;;;;;;;5.95;2.03;;;14.40;99.90;;;;;;5043333;28;20198;-84
2022/05/08 07:47:04;;;;;;;7.13;2.20;;;14.70;99.90;;;;;;5026674;28;20198;-83
2022/05/08 07:49:30;;;;;;;10.32;2.53;;;15.10;99.90;;;;;;5042180;28;20207;-84
2022/05/08 07:51:56;;;;;;;7.10;1.85;;;14.90;99.90;;;;;;5042465;28;20198;-81
2022/05/08 07:54:21;;;;;;;8.27;1.80;;;14.90;99.90;;;;;;5043437;28;20183;-83
2022/05/08 07:56:47;;;;;;;5.55;1.75;;;14.60;99.90;;;;;;5042991;28;20613;-81
2022/05/08 07:59:12;;;;;;;6.75;2.20;;;14.60;99.90;;;;;;5042245;28;20208;-82
2022/05/08 08:01:38;;;;;;;4.68;1.95;;;14.90;99.90;;;;;;5041697;28;20257;-81
2022/05/08 08:04:04;;;;;;;5.93;1.73;;;14.90;99.90;;;;;;5042858;28;20183;-80
2022/05/08 08:06:31;;;;;;;7.25;1.80;;;14.90;99.90;;;;;;5042092;28;20569;-82
2022/05/08 08:08:57;;;;;;;9.30;2.08;;;14.80;99.90;;;;;;5040801;28;20213;-81
2022/05/08 08:11:23;;;;;;;4.97;1.80;;;14.70;99.90;;;;;;5025372;28;20187;-80
2022/05/08 08:13:49;;;;;;;5.85;2.25;;;14.30;99.90;;;;;;5024893;28;20218;-81
2022/05/08 08:16:15;;;;;;;7.70;2.17;;;14.40;99.90;;;;;;5040144;28;20220;-80
2022/05/08 08:18:43;;;;;;;6.20;2.22;;;14.60;99.90;;;;;;5042425;28;20247;-81
2022/05/08 08:21:11;;;;;;;5.15;1.70;;;14.80;99.90;;;;;;5040102;28;20249;-80
2022/05/08 08:23:38;;;;;;;7.03;2.30;;;14.70;99.90;;;;;;5040567;28;20203;-82
2022/05/08 08:26:03;;;;;;;6.82;1.90;;;14.40;99.90;;;;;;5025417;28;20233;-82
2022/05/08 08:28:29;;;;;;;5.45;1.60;;;14.50;99.90;;;;;;5027532;28;20281;-82
2022/05/08 08:30:54;;;;;;;7.75;1.55;;;14.90;99.90;;;;;;5041970;28;20186;-82
2022/05/08 08:33:22;;;;;;;4.15;1.73;;;15.10;99.90;;;;;;5041956;28;20720;-80
2022/05/08 08:35:47;;;;;;;10.32;2.13;;;15.10;99.90;;;;;;5039913;28;20210;-80
2022/05/08 08:38:14;;;;;;;3.53;1.88;;;15.40;99.90;;;;;;5040318;28;20270;-80
2022/05/08 08:40:41;;;;;;;8.02;1.63;;;15.40;99.90;;;;;;5039608;28;20183;-80
2022/05/08 08:43:11;;;;;;;6.65;1.90;;;15.50;99.90;;;;;;5024911;28;20269;-80
2022/05/08 08:48:27;;;;;;;5.18;1.70;;;15.60;99.90;;;;;;5024506;28;20737;-80
2022/05/08 08:50:57;;;;;;;6.63;1.95;;;15.90;99.90;;;;;;5023865;28;20179;-80
2022/05/08 08:53:25;;;;;;;6.32;1.80;;;16.20;99.90;;;;;;5040047;28;20201;-80
2022/05/08 08:55:51;;;;;;;5.40;1.65;;;16.50;99.90;;;;;;5039308;28;20191;-80
2022/05/08 08:58:17;;;;;;;5.82;1.70;;;16.70;99.90;;;;;;5024644;28;20517;-79
2022/05/08 09:00:46;;;;;;;6.45;1.77;;;17.20;99.90;;;;;;5024107;28;20228;-82
2022/05/08 09:03:12;;;;;;;6.47;1.58;;;17.40;99.90;;;;;;5039531;28;20293;-81
2022/05/08 09:05:38;;;;;;;5.72;1.70;;;16.90;97.50;;;;;;5023423;28;20213;-80
2022/05/08 09:08:04;;;;;;;7.30;1.60;;;16.80;99.70;;;;;;5039413;28;20654;-80
2022/05/08 09:10:35;;;;;;;6.03;1.52;;;17.20;99.90;;;;;;5038797;28;20210;-80
2022/05/08 09:13:07;;;;;;;4.22;1.05;;;17.30;97.40;;;;;;5038938;28;20202;-79
2022/05/08 09:15:37;;;;;;;5.45;1.48;;;17.30;97.20;;;;;;5038942;28;20565;-81
2022/05/08 09:18:09;;;;;;;4.18;1.67;;;17.10;95.90;;;;;;5025326;28;20211;-80
2022/05/08 09:20:41;;;;;;;7.28;1.65;;;16.80;97.10;;;;;;5043171;28;20182;-81
2022/05/08 09:23:16;;;;;;;7.55;1.90;;;16.70;98.00;;;;;;5032617;28;20341;-78
2022/05/08 09:25:54;;;;;;;4.63;1.52;;;16.90;96.90;;;;;;5051675;28;20248;-79
2022/05/08 09:28:21;;;;;;;6.05;1.30;;;16.90;96.00;;;;;;5024837;28;20186;-82
2022/05/08 09:31:07;;;;;;;5.45;1.70;;;16.80;95.90;;;;;;5025350;28;21085;-80
2022/05/08 09:33:43;;;;;;;4.00;1.20;;;16.80;94.50;;;;;;5041247;28;20206;-83
2022/05/08 09:36:25;;;;;;;7.20;1.63;;;16.90;93.00;;;;;;5026279;28;20581;-82
2022/05/08 09:38:50;;;;;;;4.03;1.40;;;16.70;92.30;;;;;;5026622;28;20797;-81
2022/05/08 09:41:21;;;;;;;3.40;1.02;;;16.60;91.90;;;;;;5024312;28;20194;-83
2022/05/08 09:43:49;;;;;;;3.58;1.27;;;16.80;92.40;;;;;;5038148;28;20214;-83
2022/05/08 09:46:15;;;;;;;7.07;1.45;;;17.00;90.80;;;;;;5037786;28;20473;-81
2022/05/08 09:48:41;;;;;;;3.47;1.02;;;17.10;89.70;;;;;;5039413;28;20206;-84
2022/05/08 09:51:11;;;;;;;2.25;1.20;;;17.00;88.60;;;;;;5038642;28;20182;-81
2022/05/08 09:53:39;;;;;;;3.40;1.15;;;16.50;89.00;;;;;;5039761;28;20206;-81
2022/05/08 09:56:09;;;;;;;2.55;1.15;;;16.40;87.30;;;;;;5039483;28;20183;-81
2022/05/08 09:58:36;;;;;;;4.55;1.30;;;16.40;88.60;;;;;;5038898;28;20294;-80
2022/05/08 10:01:02;;;;;;;3.58;1.45;;;16.00;86.70;;;;;;5039399;28;20187;-81
2022/05/08 10:03:29;;;;;;;4.43;1.23;;;16.00;89.80;;;;;;5042255;28;20212;-83
2022/05/08 10:05:55;;;;;;;3.25;1.23;;;16.20;90.80;;;;;;5027491;28;20233;-81
2022/05/08 10:08:30;;;;;;;3.45;1.27;;;16.40;88.40;;;;;;5043234;28;20622;-83
2022/05/08 10:14:04;;;;;;;4.07;1.35;;;15.70;85.90;;;;;;5028081;28;20494;-83
2022/05/08 10:16:50;;;;;;;3.53;1.10;;;15.60;88.30;;;;;;5044621;28;20241;-83
2022/05/08 10:19:24;;;;;;;4.75;1.48;;;15.80;89.10;;;;;;5045456;28;20193;-82
2022/05/08 10:22:14;;;;;;;4.10;1.10;;;15.90;90.00;;;;;;5044326;28;20206;-83
2022/05/08 10:24:54;;;;;;;4.68;1.20;;;16.10;89.10;;;;;;5030644;28;20174;-84
2022/05/08 10:27:32;;;;;;;1.42;1.00;;;16.20;89.60;;;;;;5044104;28;20182;-81
2022/05/08 10:29:58;;;;;;;3.65;1.13;;;16.10;88.50;;;;;;5043521;28;20613;-81
2022/05/08 10:32:32;;;;;;;4.15;1.30;;;16.30;86.80;;;;;;5028569;28;20203;-82
2022/05/08 10:35:22;;;;;;;9.57;1.40;;;16.40;87.00;;;;;;5027254;28;20179;-82
2022/05/08 10:38:16;;;;;;;2.92;1.20;;;16.40;89.10;;;;;;5044372;28;20213;-82
2022/05/08 10:40:42;;;;;;;3.55;1.13;;;16.40;90.10;;;;;;5045619;28;20219;-83
2022/05/08 10:43:10;;;;;;;2.60;1.23;;;16.20;90.10;;;;;;5044987;28;20245;-84
2022/05/08 10:45:40;;;;;;;3.78;1.27;;;16.20;90.30;;;;;;5030490;28;20202;-83
2022/05/08 10:48:25;;;;;;;3.58;1.10;;;16.30;90.50;;;;;;5045884;28;20201;-82
2022/05/08 10:50:55;;;;;;;6.93;1.77;;;16.10;90.90;;;;;;5045388;28;20487;-81
2022/05/08 10:53:26;;;;;;;3.50;1.63;;;16.30;91.40;;;;;;5042901;28;20203;-81
2022/05/08 10:55:59;;;;;;;4.75;1.40;;;16.50;91.00;;;;;;5040303;28;20656;-80
2022/05/08 10:58:24;;;;;;;2.78;1.08;;;16.70;90.60;;;;;;5041800;28;20667;-84
2022/05/08 11:00:56;;;;;;;6.22;1.65;;;16.80;90.60;;;;;;5026325;28;20506;-81
2022/05/08 11:03:23;;;;;;;4.07;1.38;;;16.90;90.80;;;;;;5045988;28;20445;-83
2022/05/08 11:05:49;;;;;;;3.72;1.40;;;17.00;83.20;;;;;;5041709;28;20673;-82
2022/05/08 11:08:31;;;;;;;4.07;1.20;;;16.90;86.40;;;;;;5042123;28;20193;-81
2022/05/08 11:11:03;;;;;;;3.65;1.10;;;17.20;85.00;;;;;;5026062;28;20278;-82
2022/05/08 11:13:42;;;;;;;3.67;1.30;;;17.80;82.30;;;;;;5026356;28;20206;-81
2022/05/08 11:16:08;;;;;;;3.33;1.08;;;17.90;78.50;;;;;;5041583;28;20198;-81
2022/05/08 11:18:34;;;;;;;4.93;1.42;;;17.70;77.00;;;;;;5041208;28;20297;-84
2022/05/08 11:21:01;;;;;;;5.38;1.40;;;17.90;79.40;;;;;;5041136;28;20313;-81
2022/05/08 11:23:32;;;;;;;3.70;1.30;;;18.10;76.90;;;;;;5041267;28;20313;-81
2022/05/08 11:26:03;;;;;;;3.72;1.38;;;18.00;75.20;;;;;;5039289;28;20524;-82
2022/05/08 11:28:30;;;;;;;5.38;1.50;;;18.10;75.10;;;;;;5040532;28;20210;-82
2022/05/08 11:30:57;;;;;;;2.78;1.15;;;18.10;76.50;;;;;;5040416;28;20218;-82
2022/05/08 11:36:27;;;;;;;2.58;1.30;;;18.30;71.90;;;;;;5026014;28;20236;-83
2022/05/08 11:38:56;;;;;;;4.90;1.23;;;18.10;73.20;;;;;;5042349;28;20183;-84
2022/05/08 11:41:24;;;;;;;5.40;1.25;;;18.00;74.80;;;;;;5043197;28;20215;-84
2022/05/08 11:43:55;;;;;;;3.72;1.45;;;18.10;74.80;;;;;;5027975;28;20570;-83
2022/05/08 11:46:39;;;;;;;3.30;1.58;;;18.60;72.50;;;;;;5040331;28;20544;-80
2022/05/08 11:49:19;;;;;;;5.75;1.50;;;19.20;73.20;;;;;;5041345;28;20225;-79
2022/05/08 11:51:48;;;;;;;5.10;1.52;;;19.60;72.30;;;;;;5026474;28;20586;-79
2022/05/08 11:54:22;;;;;;;4.55;1.45;;;19.30;72.10;;;;;;5024577;28;20454;-79
2022/05/08 11:56:51;;;;;;;3.00;1.30;;;19.70;70.80;;;;;;5025032;28;20206;-78
2022/05/08 11:59:19;;;;;;;6.25;1.20;;;19.30;67.80;;;;;;5025437;28;20323;-79
2022/05/08 12:01:53;;;;;;;5.25;1.80;;;19.20;69.50;;;;;;5024144;28;20211;-79
2022/05/08 12:04:24;;;;;;;3.85;1.35;;;18.90;68.40;;;;;;5025875;28;20641;-79
2022/05/08 12:07:17;;;;;;;4.45;1.40;;;19.00;69.80;;;;;;5041755;28;20469;-79
2022/05/08 12:09:48;;;;;;;4.60;1.20;;;18.90;66.20;;;;;;5024862;28;20349;-80
2022/05/08 12:12:25;;;;;;;2.13;1.10;;;18.70;66.50;;;;;;5042292;28;20213;-80
2022/05/08 12:14:52;;;;;;;4.18;1.20;;;18.80;67.70;;;;;;5042289;28;20185;-79
2022/05/08 12:17:17;;;;;;;3.72;1.10;;;18.90;66.40;;;;;;5026133;28;21017;-81
2022/05/08 12:19:53;;;;;;;4.90;1.27;;;19.00;68.40;;;;;;5041586;28;20182;-79
2022/05/08 12:22:24;;;;;;;4.60;1.48;;;19.10;68.00;;;;;;5041251;28;20202;-81
2022/05/08 12:24:50;;;;;;;5.00;1.63;;;19.40;67.10;;;;;;5040647;28;20191;-79
2022/05/08 12:27:16;;;;;;;6.35;1.30;;;19.50;65.60;;;;;;5041245;28;20195;-81
2022/05/08 12:29:46;;;;;;;1.98;1.02;;;19.50;66.50;;;;;;5024149;28;20456;-81
2022/05/08 12:32:13;;;;;;;3.55;1.20;;;19.20;63.30;;;;;;5021643;28;21011;-80
2022/05/08 12:34:41;;;;;;;3.70;0.90;;;19.00;64.30;;;;;;5041754;28;20183;-79
2022/05/08 12:37:10;;;;;;;2.50;1.27;;;19.30;64.10;;;;;;5038736;28;20198;-79
2022/05/08 12:39:36;;;;;;;2.30;1.00;;;19.40;63.90;;;;;;5026178;28;20238;-81
2022/05/08 12:42:02;;;;;;;4.00;1.13;;;19.40;62.80;;;;;;5026286;28;20237;-81
2022/05/08 12:44:27;;;;;;;3.08;1.05;;;18.90;63.00;;;;;;5024304;28;20182;-80
2022/05/08 12:46:53;;;;;;;3.20;1.27;;;18.80;64.70;;;;;;5025006;28;20190;-79
2022/05/08 12:49:19;;;;;;;4.35;1.17;;;18.90;64.00;;;;;;5040641;28;20289;-81
2022/05/08 12:51:45;;;;;;;5.93;1.02;;;19.10;62.80;;;;;;5026419;28;20187;-80
2022/05/08 12:54:11;;;;;;;3.35;1.30;;;19.10;60.50;;;;;;5026389;28;20244;-79
2022/05/08 12:56:37;;;;;;;2.78;1.00;;;19.10;59.40;;;;;;5025795;28;20190;-80
2022/05/08 13:01:49;;;;;;;2.60;1.17;;;19.20;62.00;;;;;;5028044;28;20645;-80
2022/05/08 13:04:15;;;;;;;3.25;1.00;;;19.40;59.90;;;;;;5029377;28;20737;-79
2022/05/08 13:06:42;;;;;;;2.03;1.20;;;19.70;58.70;;;;;;5042621;28;20272;-82
2022/05/08 13:09:08;;;;;;;2.70;1.15;;;19.60;54.50;;;;;;5027544;28;20289;-81
2022/05/08 13:11:35;;;;;;;2.45;1.00;;;19.50;55.40;;;;;;5042432;28;20207;-78
2022/05/08 13:14:01;;;;;;;3.15;1.30;;;19.70;55.80;;;;;;5042253;28;20233;-80
2022/05/08 13:16:27;;;;;;;2.40;1.10;;;19.50;55.30;;;;;;5042117;28;20183;-80